Eagle San Antonio — 9V9330 — position and weather

sailwx.info

Track history (hours):
 
Tides and Currents Weather Stations Pressure Air Temp Water Temp Dewpoint Dewpoint Depression Visibility Wind Speed Wind Dir Waves Ship Positions

Eagle San Antonio

Last reported at 2015-Apr-21 20:23 UTC. Time now 2015-Apr-21 21:07 UTC.
Position N 10°52' W 018°03'.

Length 274 m; draft 9.3 m.

Type: Tanker. MMSI: 566453000.

Date/timePositionNaut miles runAvg speedWind from/ knotsBaromVisibWave heightAir tempDewpointWater temp
2015-Apr-21 20:23N 10°52' W 018°03'3913.8
2015-Apr-21 17:32N 11°29' W 018°17'1313.7
2015-Apr-21 16:33N 11°41' W 018°22'4113.5
2015-Apr-21 13:29N 12°20' W 018°36'  
2015-Apr-13 12:23N 49°54' W 003°18'1011.6
2015-Apr-13 11:32N 49°57' W 003°04'1312.2
2015-Apr-13 10:30N 50°00' W 002°45'1212.7
2015-Apr-13 09:33N 50°03' W 002°27'1613.9
2015-Apr-13 08:24N 50°05' W 002°02'1213.7
2015-Apr-13 07:31N 50°06' W 001°43'4813.9
2015-Apr-13 04:06N 49°41' W 000°40'912.4
2015-Apr-13 03:22N 49°39' W 000°26'1012.5
2015-Apr-13 02:34N 49°34' W 000°13'1312.7
2015-Apr-13 01:34N 49°29' E 000°05'3 2.7
2015-Apr-13 00:33N 49°28' E 000°09'0 0.0
2015-Apr-12 23:33N 49°28' E 000°09'0 0.0
2015-Apr-12 22:33N 49°28' E 000°09'0 0.0
2015-Apr-12 21:33N 49°28' E 000°09'0 0.0
2015-Apr-12 20:33N 49°28' E 000°09'0 0.0
2015-Apr-12 19:33N 49°28' E 000°09'0 0.0
2015-Apr-12 18:33N 49°28' E 000°09'0 0.0
2015-Apr-12 17:33N 49°28' E 000°09'0 0.0
2015-Apr-12 16:33N 49°28' E 000°09'0 0.0
2015-Apr-12 15:33N 49°28' E 000°09'0 0.0
2015-Apr-12 14:33N 49°28' E 000°09'0 0.0
2015-Apr-12 13:33N 49°28' E 000°09'0 0.0
2015-Apr-12 12:33N 49°28' E 000°09'0 0.0
2015-Apr-12 11:33N 49°28' E 000°09'0 0.0
2015-Apr-12 10:33N 49°28' E 000°09'0 0.0
2015-Apr-12 09:30N 49°28' E 000°09'0 0.0
2015-Apr-12 08:33N 49°28' E 000°09'0 0.0
2015-Apr-12 07:31N 49°28' E 000°09'0 0.0
2015-Apr-12 06:31N 49°28' E 000°09'0 0.0
2015-Apr-12 05:31N 49°28' E 000°09'0 0.0
2015-Apr-12 04:31N 49°28' E 000°09'0 0.0
2015-Apr-12 03:31N 49°28' E 000°09'0 0.0
2015-Apr-12 02:31N 49°28' E 000°09'0 0.0
2015-Apr-12 01:33N 49°28' E 000°09'2 1.6
2015-Apr-12 00:33N 49°29' E 000°07'1111.4
2015-Apr-11 23:33N 49°32' W 000°10'5 4.8
2015-Apr-11 22:33N 49°37' W 000°12'5 4.5
2015-Apr-11 21:33N 49°38' W 000°19'1 1.2
2015-Apr-11 20:34N 49°39' W 000°20'  
Track history (hours):
 
Tides and Currents Weather Stations Pressure Air Temp Water Temp Dewpoint Dewpoint Depression Visibility Wind Speed Wind Dir Waves Ship Positions

Eagle San Antonio

Last reported at 2015-Apr-21 20:23 UTC. Time now 2015-Apr-21 21:07 UTC.
Position N 10°52' W 018°03'.

Length 274 m; draft 9.3 m.

Type: Tanker. MMSI: 566453000.

Date/timePositionNaut miles runAvg speedWind from/ knotsBaromVisibWave heightAir tempDewpointWater temp
2015-Apr-21 20:23N 10°52' W 018°03'3913.8
2015-Apr-21 17:32N 11°29' W 018°17'1313.7
2015-Apr-21 16:33N 11°41' W 018°22'4113.5
2015-Apr-21 13:29N 12°20' W 018°36'  
2015-Apr-13 12:23N 49°54' W 003°18'1011.6
2015-Apr-13 11:32N 49°57' W 003°04'1312.2
2015-Apr-13 10:30N 50°00' W 002°45'1212.7
2015-Apr-13 09:33N 50°03' W 002°27'1613.9
2015-Apr-13 08:24N 50°05' W 002°02'1213.7
2015-Apr-13 07:31N 50°06' W 001°43'4813.9
2015-Apr-13 04:06N 49°41' W 000°40'912.4
2015-Apr-13 03:22N 49°39' W 000°26'1012.5
2015-Apr-13 02:34N 49°34' W 000°13'1312.7
2015-Apr-13 01:34N 49°29' E 000°05'3 2.7
2015-Apr-13 00:33N 49°28' E 000°09'0 0.0
2015-Apr-12 23:33N 49°28' E 000°09'0 0.0
2015-Apr-12 22:33N 49°28' E 000°09'0 0.0
2015-Apr-12 21:33N 49°28' E 000°09'0 0.0
2015-Apr-12 20:33N 49°28' E 000°09'0 0.0
2015-Apr-12 19:33N 49°28' E 000°09'0 0.0
2015-Apr-12 18:33N 49°28' E 000°09'0 0.0
2015-Apr-12 17:33N 49°28' E 000°09'0 0.0
2015-Apr-12 16:33N 49°28' E 000°09'0 0.0
2015-Apr-12 15:33N 49°28' E 000°09'0 0.0
2015-Apr-12 14:33N 49°28' E 000°09'0 0.0
2015-Apr-12 13:33N 49°28' E 000°09'0 0.0
2015-Apr-12 12:33N 49°28' E 000°09'0 0.0
2015-Apr-12 11:33N 49°28' E 000°09'0 0.0
2015-Apr-12 10:33N 49°28' E 000°09'0 0.0
2015-Apr-12 09:30N 49°28' E 000°09'0 0.0
2015-Apr-12 08:33N 49°28' E 000°09'0 0.0
2015-Apr-12 07:31N 49°28' E 000°09'0 0.0
2015-Apr-12 06:31N 49°28' E 000°09'0 0.0
2015-Apr-12 05:31N 49°28' E 000°09'0 0.0
2015-Apr-12 04:31N 49°28' E 000°09'0 0.0
2015-Apr-12 03:31N 49°28' E 000°09'0 0.0
2015-Apr-12 02:31N 49°28' E 000°09'0 0.0
2015-Apr-12 01:33N 49°28' E 000°09'2 1.6
2015-Apr-12 00:33N 49°29' E 000°07'1111.4
2015-Apr-11 23:33N 49°32' W 000°10'5 4.8
2015-Apr-11 22:33N 49°37' W 000°12'5 4.5
2015-Apr-11 21:33N 49°38' W 000°19'1 1.2
2015-Apr-11 20:34N 49°39' W 000°20'  

Dump ship's entire track history